createdAt,value
2022-10-13T00:00:51.583Z,18.50
2022-10-13T00:01:51.342Z,19.20
2022-10-13T00:02:51.429Z,18.90
2022-10-13T00:03:51.331Z,18.50
2022-10-13T00:04:51.420Z,20.60
2022-10-13T00:05:51.283Z,17.60
2022-10-13T00:06:51.411Z,19.10
2022-10-13T00:07:51.252Z,24.30
2022-10-13T00:08:52.360Z,21.00
2022-10-13T00:09:51.232Z,19.90
2022-10-13T00:10:51.332Z,20.20
2022-10-13T00:11:51.211Z,22.70
2022-10-13T00:12:51.293Z,18.40
2022-10-13T00:13:51.211Z,18.60
2022-10-13T00:14:51.241Z,24.10
2022-10-13T00:15:51.160Z,18.10
2022-10-13T00:16:51.342Z,20.70
2022-10-13T00:17:51.161Z,19.50
2022-10-13T00:18:51.223Z,21.80
2022-10-13T00:19:51.104Z,18.30
2022-10-13T00:20:51.251Z,17.90
2022-10-13T00:21:51.077Z,22.70
2022-10-13T00:22:51.141Z,18.90
2022-10-13T00:23:51.052Z,20.50
2022-10-13T00:24:51.131Z,21.50
2022-10-13T00:25:51.022Z,22.90
2022-10-13T00:26:52.181Z,24.30
2022-10-13T00:27:51.020Z,21.50
2022-10-13T00:28:52.871Z,23.60
2022-10-13T00:29:50.961Z,21.30
2022-10-13T00:30:51.029Z,23.50
2022-10-13T00:31:50.942Z,21.50
2022-10-13T00:32:51.073Z,24.00
2022-10-13T00:33:50.921Z,24.20
2022-10-13T00:34:51.051Z,24.80
2022-10-13T00:35:50.881Z,20.00
2022-10-13T00:36:51.044Z,21.30
2022-10-13T00:37:50.862Z,21.60
2022-10-13T00:38:50.972Z,23.60
2022-10-13T00:39:50.841Z,24.50
2022-10-13T00:40:50.958Z,24.20
2022-10-13T00:41:50.801Z,25.00
2022-10-13T00:42:50.941Z,22.40
2022-10-13T00:43:50.779Z,25.60
2022-10-13T00:44:50.881Z,25.50
2022-10-13T00:45:50.756Z,23.70
2022-10-13T00:46:50.964Z,26.20
2022-10-13T00:47:50.725Z,23.00
2022-10-13T00:48:50.750Z,21.80
2022-10-13T00:49:50.694Z,22.20
2022-10-13T00:50:50.782Z,22.50
2022-10-13T00:51:50.669Z,21.40
2022-10-13T00:52:50.771Z,24.20
2022-10-13T00:53:50.642Z,22.50
2022-10-13T00:54:51.780Z,20.90
2022-10-13T00:55:50.617Z,23.10
2022-10-13T00:56:50.800Z,23.50
2022-10-13T00:57:50.595Z,22.50
2022-10-13T00:58:50.679Z,27.20
2022-10-13T00:59:50.562Z,27.70
2022-10-13T01:00:50.739Z,21.40
2022-10-13T01:01:50.541Z,23.50
2022-10-13T01:03:20.353Z,21.80
2022-10-13T01:03:56.757Z,20.70
2022-10-13T01:04:53.127Z,22.90
2022-10-13T01:05:53.314Z,23.20
2022-10-13T01:06:53.327Z,22.50
2022-10-13T01:07:55.018Z,23.80
2022-10-13T01:08:52.659Z,22.10
2022-10-13T01:10:01.037Z,23.50
2022-10-13T01:10:54.513Z,18.60
2022-10-13T01:11:50.394Z,20.60
2022-10-13T01:12:50.516Z,22.40
2022-10-13T01:13:50.372Z,22.50
2022-10-13T01:14:50.412Z,20.50
2022-10-13T01:15:50.376Z,22.10
2022-10-13T01:16:50.483Z,21.30
2022-10-13T01:17:50.322Z,18.40
2022-10-13T01:18:51.453Z,22.50
2022-10-13T01:19:50.286Z,24.00
2022-10-13T01:20:50.462Z,22.40
2022-10-13T01:21:50.302Z,23.60
2022-10-13T01:22:50.285Z,23.50
2022-10-13T01:23:50.238Z,21.90
2022-10-13T01:25:11.312Z,22.60
2022-10-13T01:25:50.221Z,21.40
2022-10-13T01:26:50.364Z,21.40
2022-10-13T01:27:50.212Z,25.90
2022-10-13T01:28:50.384Z,23.10
2022-10-13T01:29:50.161Z,26.00
2022-10-13T01:30:50.246Z,20.90
2022-10-13T01:31:50.134Z,23.60
2022-10-13T01:32:50.180Z,23.10
2022-10-13T01:33:50.142Z,23.50
2022-10-13T01:34:50.205Z,24.50
2022-10-13T01:35:50.082Z,24.20
2022-10-13T01:36:51.174Z,25.50
2022-10-13T01:37:50.053Z,20.70
2022-10-13T01:38:50.182Z,19.60
2022-10-13T01:39:50.060Z,22.90
2022-10-13T01:40:50.123Z,21.30
2022-10-13T01:41:50.002Z,22.20
2022-10-13T01:42:50.042Z,22.00
2022-10-13T01:43:49.973Z,21.50
2022-10-13T01:44:50.082Z,24.60
2022-10-13T01:45:49.983Z,19.30
2022-10-13T01:46:50.120Z,22.90
2022-10-13T01:47:49.923Z,21.30
2022-10-13T01:48:52.149Z,20.70
2022-10-13T01:49:49.892Z,20.10
2022-10-13T01:50:49.997Z,21.10
2022-10-13T01:51:49.883Z,20.80
2022-10-13T01:52:49.921Z,21.90
2022-10-13T01:53:49.839Z,21.40
2022-10-13T01:54:49.963Z,26.10
2022-10-13T01:55:49.813Z,22.40
2022-10-13T01:56:49.995Z,21.70
2022-10-13T01:57:49.813Z,19.90
2022-10-13T01:59:10.913Z,21.10
2022-10-13T01:59:49.754Z,19.30
2022-10-13T02:00:49.873Z,21.40
2022-10-13T02:01:49.740Z,23.80
2022-10-13T02:02:49.792Z,21.40
2022-10-13T02:03:49.732Z,20.70
2022-10-13T02:04:50.862Z,17.60
2022-10-13T02:05:49.688Z,17.70
2022-10-13T02:06:49.873Z,21.00
2022-10-13T02:07:49.655Z,19.00
2022-10-13T02:08:49.704Z,21.00
2022-10-13T02:09:49.643Z,18.90
2022-10-13T02:10:51.693Z,17.50
2022-10-13T02:11:49.594Z,21.30
2022-10-13T02:12:50.699Z,22.00
2022-10-13T02:13:49.563Z,21.40
2022-10-13T02:14:49.711Z,23.90
2022-10-13T02:15:49.571Z,29.60
2022-10-13T02:16:49.642Z,23.80
2022-10-13T02:17:49.512Z,23.80
2022-10-13T02:18:49.578Z,19.30
2022-10-13T02:19:49.501Z,21.20
2022-10-13T02:20:50.644Z,23.30
2022-10-13T02:21:49.491Z,20.00
2022-10-13T02:22:49.552Z,21.60
2022-10-13T02:23:49.451Z,21.50
2022-10-13T02:24:49.581Z,19.70
2022-10-13T02:25:49.403Z,19.00
2022-10-13T02:26:49.521Z,21.10
2022-10-13T02:27:49.421Z,21.50
2022-10-13T02:28:49.511Z,19.20
2022-10-13T02:29:49.352Z,19.70
2022-10-13T02:30:49.493Z,19.00
2022-10-13T02:31:49.322Z,19.90
2022-10-13T02:32:50.451Z,25.90
2022-10-13T02:33:49.326Z,17.90
2022-10-13T02:34:49.462Z,17.90
2022-10-13T02:35:49.277Z,17.60
2022-10-13T02:36:49.403Z,23.20
2022-10-13T02:37:49.256Z,19.40
2022-10-13T02:39:11.391Z,19.00
2022-10-13T02:39:49.223Z,16.90
2022-10-13T02:40:49.371Z,20.70
2022-10-13T02:41:49.202Z,21.40
2022-10-13T02:42:49.310Z,17.80
2022-10-13T02:43:49.172Z,19.70
2022-10-13T02:44:49.301Z,20.40
2022-10-13T02:45:49.141Z,18.00
2022-10-13T02:46:49.281Z,22.70
2022-10-13T02:47:49.204Z,18.20
2022-10-13T02:48:49.212Z,20.90
2022-10-13T02:49:49.079Z,21.30
2022-10-13T02:50:49.194Z,19.20
2022-10-13T02:51:49.062Z,18.60
2022-10-13T02:52:49.182Z,20.20
2022-10-13T02:53:49.042Z,19.90
2022-10-13T02:54:50.142Z,19.60
2022-10-13T02:55:49.010Z,24.20
2022-10-13T02:56:49.102Z,23.20
2022-10-13T02:57:48.973Z,21.20
2022-10-13T02:58:49.103Z,18.90
2022-10-13T02:59:48.945Z,25.40
2022-10-13T03:00:49.170Z,21.40
2022-10-13T03:01:48.922Z,20.30
2022-10-13T03:02:52.286Z,19.80
2022-10-13T03:03:48.933Z,18.20
2022-10-13T03:04:48.985Z,18.00
2022-10-13T03:05:48.881Z,19.20
2022-10-13T03:06:48.980Z,18.00
2022-10-13T03:07:48.831Z,18.40
2022-10-13T03:08:48.945Z,16.00
2022-10-13T03:09:48.812Z,20.00
2022-10-13T03:10:49.001Z,18.10
2022-10-13T03:11:48.782Z,19.10
2022-10-13T03:12:49.872Z,17.60
2022-10-13T03:13:48.751Z,16.80
2022-10-13T03:14:48.826Z,17.70
2022-10-13T03:15:48.712Z,18.10
2022-10-13T03:16:48.822Z,20.40
2022-10-13T03:17:48.711Z,19.10
2022-10-13T03:18:48.855Z,16.20
2022-10-13T03:19:48.673Z,17.70
2022-10-13T03:20:48.842Z,14.10
2022-10-13T03:21:48.659Z,14.40
2022-10-13T03:22:49.905Z,16.90
2022-10-13T03:23:48.623Z,15.60
2022-10-13T03:24:48.740Z,18.30
2022-10-13T03:25:48.601Z,14.40
2022-10-13T03:26:48.739Z,14.30
2022-10-13T03:27:48.580Z,18.30
2022-10-13T03:28:48.756Z,21.50
2022-10-13T03:29:48.541Z,18.40
2022-10-13T03:30:48.652Z,16.50
2022-10-13T03:31:48.511Z,14.90
2022-10-13T03:32:48.639Z,19.20
2022-10-13T03:33:48.484Z,15.10
2022-10-13T03:34:48.621Z,15.70
2022-10-13T03:35:48.462Z,16.00
2022-10-13T03:36:48.629Z,15.60
2022-10-13T03:37:48.432Z,18.50
2022-10-13T03:38:48.651Z,17.20
2022-10-13T03:39:48.393Z,20.30
2022-10-13T03:40:48.428Z,17.00
2022-10-13T03:41:48.380Z,15.40
2022-10-13T03:42:48.476Z,14.70
2022-10-13T03:43:48.350Z,17.30
2022-10-13T03:44:52.382Z,14.20
2022-10-13T03:45:49.319Z,16.50
2022-10-13T03:46:48.438Z,16.80
2022-10-13T03:47:48.308Z,14.70
2022-10-13T03:48:48.489Z,16.30
2022-10-13T03:49:48.288Z,16.10
2022-10-13T03:50:48.352Z,16.30
2022-10-13T03:51:48.242Z,16.80
2022-10-13T03:52:48.344Z,13.80
2022-10-13T03:53:48.226Z,17.50
2022-10-13T03:54:48.382Z,17.90
2022-10-13T03:55:48.211Z,17.70
2022-10-13T03:56:48.363Z,18.70
2022-10-13T03:57:48.161Z,17.30
2022-10-13T03:58:48.241Z,15.40
2022-10-13T03:59:48.131Z,15.80
2022-10-13T04:00:48.153Z,18.60
2022-10-13T04:01:48.126Z,15.80
2022-10-13T04:02:48.270Z,16.20
2022-10-13T04:03:48.090Z,16.50
2022-10-13T04:04:48.252Z,18.40
2022-10-13T04:05:48.051Z,14.30
2022-10-13T04:06:48.181Z,16.60
2022-10-13T04:07:48.024Z,12.60
2022-10-13T04:08:48.068Z,13.90
2022-10-13T04:09:47.999Z,13.40
2022-10-13T04:10:48.051Z,16.80
2022-10-13T04:11:47.971Z,18.20
2022-10-13T04:12:49.110Z,16.50
2022-10-13T04:13:47.950Z,16.80
2022-10-13T04:14:48.083Z,13.60
2022-10-13T04:15:47.920Z,18.70
2022-10-13T04:16:47.965Z,14.20
2022-10-13T04:17:47.900Z,15.50
2022-10-13T04:18:49.991Z,15.10
2022-10-13T04:19:47.870Z,15.50
2022-10-13T04:20:47.980Z,12.00
2022-10-13T04:21:47.850Z,24.50
2022-10-13T04:22:47.971Z,14.00
2022-10-13T04:23:47.809Z,18.00
2022-10-13T04:24:48.019Z,13.20
2022-10-13T04:25:47.790Z,15.10
2022-10-13T04:26:47.883Z,12.50
2022-10-13T04:27:47.770Z,14.20
2022-10-13T04:28:47.944Z,12.50
2022-10-13T04:29:47.740Z,14.10
2022-10-13T04:30:49.606Z,15.10
2022-10-13T04:31:47.710Z,15.60
2022-10-13T04:32:47.891Z,16.40
2022-10-13T04:33:47.682Z,14.40
2022-10-13T04:34:47.879Z,18.00
2022-10-13T04:35:47.664Z,15.70
2022-10-13T04:36:47.711Z,14.30
2022-10-13T04:37:47.630Z,22.80
2022-10-13T04:38:47.800Z,16.00
2022-10-13T04:39:47.612Z,14.20
2022-10-13T04:40:47.681Z,14.10
2022-10-13T04:41:47.583Z,15.40
2022-10-13T04:42:47.729Z,18.60
2022-10-13T04:43:47.553Z,15.00
2022-10-13T04:44:47.610Z,13.60
2022-10-13T04:45:47.530Z,14.70
2022-10-13T04:46:47.589Z,16.40
2022-10-13T04:47:47.500Z,15.90
2022-10-13T04:48:47.630Z,16.50
2022-10-13T04:49:47.468Z,22.60
2022-10-13T04:50:47.678Z,18.80
2022-10-13T04:51:47.448Z,19.00
2022-10-13T04:52:48.624Z,19.80
2022-10-13T04:53:47.420Z,18.50
2022-10-13T04:54:47.536Z,20.90
2022-10-13T04:55:47.391Z,15.70
2022-10-13T04:56:47.519Z,18.50
2022-10-13T04:57:47.372Z,25.10
2022-10-13T04:58:47.500Z,20.50
2022-10-13T04:59:47.357Z,20.60
2022-10-13T05:00:47.496Z,20.70
2022-10-13T05:01:47.319Z,19.50
2022-10-13T05:02:47.526Z,18.40
2022-10-13T05:03:47.290Z,18.60
2022-10-13T05:04:47.407Z,20.20
2022-10-13T05:05:47.258Z,26.20
2022-10-13T05:07:16.013Z,23.50
2022-10-13T05:07:48.286Z,22.50
2022-10-13T05:08:47.370Z,17.50
2022-10-13T05:09:47.209Z,21.70
2022-10-13T05:10:47.308Z,16.50
2022-10-13T05:11:47.179Z,19.80
2022-10-13T05:12:47.250Z,15.70
2022-10-13T05:13:47.208Z,16.10
2022-10-13T05:14:47.243Z,17.30
2022-10-13T05:15:47.129Z,17.70
2022-10-13T05:16:47.221Z,18.70
2022-10-13T05:17:47.100Z,16.00
2022-10-13T05:18:47.258Z,19.20
2022-10-13T05:19:47.114Z,18.80
2022-10-13T05:20:47.193Z,18.20
2022-10-13T05:21:47.048Z,19.10
2022-10-13T05:22:47.118Z,21.20
2022-10-13T05:23:47.026Z,23.20
2022-10-13T05:24:47.159Z,17.70
2022-10-13T05:25:47.058Z,22.50
2022-10-13T05:26:47.100Z,21.10
2022-10-13T05:27:46.968Z,24.80
2022-10-13T05:28:47.193Z,21.80
2022-10-13T05:29:46.946Z,22.60
2022-10-13T05:30:46.960Z,24.00
2022-10-13T05:31:46.939Z,21.70
2022-10-13T05:32:51.498Z,24.80
2022-10-13T05:33:47.890Z,21.20
2022-10-13T05:34:47.961Z,24.30
2022-10-13T05:35:46.860Z,22.10
2022-10-13T05:36:46.987Z,22.10
2022-10-13T05:37:46.859Z,26.10
2022-10-13T05:38:47.021Z,22.10
2022-10-13T05:39:48.892Z,23.50
2022-10-13T05:40:46.839Z,22.70
2022-10-13T05:41:46.769Z,23.10
2022-10-13T05:42:46.880Z,23.50
2022-10-13T05:43:46.787Z,25.50
2022-10-13T05:44:46.823Z,30.80
2022-10-13T05:45:46.710Z,23.20
2022-10-13T05:46:46.848Z,23.40
2022-10-13T05:47:46.689Z,24.10
2022-10-13T05:48:47.700Z,24.50
2022-10-13T05:49:46.678Z,28.60
2022-10-13T05:50:46.719Z,25.30
2022-10-13T05:51:46.628Z,26.70
2022-10-13T05:52:46.757Z,29.60
2022-10-13T05:53:50.273Z,32.20
2022-10-13T05:54:47.636Z,24.40
2022-10-13T05:55:46.620Z,29.00
2022-10-13T05:56:46.570Z,26.60
2022-10-13T05:57:46.687Z,30.50
2022-10-13T05:58:46.597Z,26.60
2022-10-13T05:59:46.798Z,32.80
2022-10-13T06:00:46.537Z,25.10
2022-10-13T06:01:47.745Z,28.20
2022-10-13T06:02:46.488Z,24.70
2022-10-13T06:03:47.518Z,22.30
2022-10-13T06:04:46.459Z,25.10
2022-10-13T06:05:46.531Z,22.70
2022-10-13T06:06:46.461Z,24.30
2022-10-13T06:07:46.527Z,20.60
2022-10-13T06:08:46.409Z,22.20
2022-10-13T06:09:46.508Z,22.70
2022-10-13T06:10:46.381Z,20.90
2022-10-13T06:11:46.439Z,27.10
2022-10-13T06:12:46.377Z,26.00
2022-10-13T06:13:46.489Z,24.00
2022-10-13T06:14:46.328Z,21.50
2022-10-13T06:15:46.412Z,25.10
2022-10-13T06:16:46.299Z,18.00
2022-10-13T06:17:46.448Z,21.10
2022-10-13T06:18:46.289Z,23.40
2022-10-13T06:19:46.384Z,23.50
2022-10-13T06:20:46.248Z,27.60
2022-10-13T06:21:46.317Z,24.60
2022-10-13T06:22:46.218Z,25.70
2022-10-13T06:23:46.378Z,22.40
2022-10-13T06:24:46.209Z,25.30
2022-10-13T06:25:47.249Z,27.40
2022-10-13T06:26:46.158Z,28.50
2022-10-13T06:27:46.339Z,21.10
2022-10-13T06:28:49.821Z,33.30
2022-10-13T06:29:47.157Z,31.10
2022-10-13T06:30:46.157Z,29.30
2022-10-13T06:31:46.098Z,35.20
2022-10-13T06:32:46.268Z,26.00
2022-10-13T06:33:46.081Z,29.10
2022-10-13T06:34:46.199Z,27.50
2022-10-13T06:35:46.086Z,25.70
2022-10-13T06:36:46.128Z,34.30
2022-10-13T06:37:46.018Z,31.00
2022-10-13T06:38:46.168Z,34.40
2022-10-13T06:39:45.997Z,31.20
2022-10-13T06:40:46.098Z,32.40
2022-10-13T06:41:45.998Z,29.10
2022-10-13T06:42:47.179Z,36.50
2022-10-13T06:43:45.942Z,39.60
2022-10-13T06:44:45.974Z,33.50
2022-10-13T06:45:45.919Z,34.80
2022-10-13T06:46:47.045Z,29.70
2022-10-13T06:47:45.917Z,29.50
2022-10-13T06:48:46.057Z,34.90
2022-10-13T06:49:45.886Z,28.90
2022-10-13T06:50:46.370Z,26.90
2022-10-13T06:51:45.898Z,26.90
2022-10-13T06:52:46.017Z,23.60
2022-10-13T06:53:45.828Z,30.20
2022-10-13T06:54:47.374Z,26.40
2022-10-13T06:55:50.196Z,26.60
2022-10-13T06:56:46.878Z,29.20
2022-10-13T06:57:45.951Z,22.40
2022-10-13T06:58:45.740Z,27.40
2022-10-13T06:59:45.847Z,26.80
2022-10-13T07:00:45.757Z,23.80
2022-10-13T07:01:45.769Z,25.90
2022-10-13T07:02:45.691Z,26.80
2022-10-13T07:03:45.758Z,21.60
2022-10-13T07:04:45.658Z,27.00
2022-10-13T07:05:45.858Z,39.10
2022-10-13T07:06:45.630Z,43.90
2022-10-13T07:07:46.657Z,41.10
2022-10-13T07:08:45.598Z,36.60
2022-10-13T07:09:45.721Z,30.80
2022-10-13T07:10:45.569Z,28.30
2022-10-13T07:11:45.774Z,38.70
2022-10-13T07:12:45.558Z,36.80
2022-10-13T07:13:46.883Z,35.60
2022-10-13T07:14:45.529Z,33.80
2022-10-13T07:15:45.679Z,41.40
2022-10-13T07:16:45.529Z,31.80
2022-10-13T07:17:45.637Z,39.90
2022-10-13T07:18:45.471Z,36.80
2022-10-13T07:19:46.589Z,39.60
2022-10-13T07:20:45.467Z,41.40
2022-10-13T07:21:45.595Z,40.80
2022-10-13T07:22:45.429Z,42.10
2022-10-13T07:23:45.580Z,41.90
2022-10-13T07:24:45.410Z,43.60
2022-10-13T07:25:45.479Z,39.10
2022-10-13T07:26:45.487Z,42.00
2022-10-13T07:27:45.488Z,41.60
2022-10-13T07:28:45.400Z,47.70
2022-10-13T07:29:45.480Z,46.00
2022-10-13T07:30:45.310Z,47.40
2022-10-13T07:31:46.565Z,43.40
2022-10-13T07:32:45.278Z,41.10
2022-10-13T07:33:45.407Z,43.60
2022-10-13T07:34:45.256Z,46.90
2022-10-13T07:35:45.438Z,44.70
2022-10-13T07:36:45.300Z,55.30
2022-10-13T07:37:46.289Z,41.50
2022-10-13T07:38:45.203Z,51.70
2022-10-13T07:39:45.298Z,51.40
2022-10-13T07:40:45.159Z,49.50
2022-10-13T07:41:48.777Z,52.70
2022-10-13T07:42:46.239Z,51.00
2022-10-13T07:43:45.211Z,53.20
2022-10-13T07:44:45.178Z,46.20
2022-10-13T07:45:45.210Z,51.20
2022-10-13T07:46:45.088Z,53.20
2022-10-13T07:47:47.277Z,51.70
2022-10-13T07:48:45.071Z,52.80
2022-10-13T07:49:45.179Z,43.70
2022-10-13T07:50:45.040Z,43.40
2022-10-13T07:51:45.214Z,46.50
2022-10-13T07:52:45.010Z,43.40
2022-10-13T07:53:45.100Z,42.20
2022-10-13T07:54:45.037Z,45.20
2022-10-13T07:55:45.088Z,48.50
2022-10-13T07:56:44.966Z,41.60
2022-10-13T07:57:45.118Z,39.50
2022-10-13T07:58:44.938Z,50.50
2022-10-13T07:59:49.288Z,43.60
2022-10-13T08:00:44.929Z,42.50
2022-10-13T08:01:45.053Z,40.40
2022-10-13T08:02:44.880Z,42.10
2022-10-13T08:03:48.885Z,44.40
2022-10-13T08:04:45.849Z,48.40
2022-10-13T08:05:49.168Z,46.80
2022-10-13T08:06:44.814Z,42.80
2022-10-13T08:07:44.990Z,49.80
2022-10-13T08:08:44.788Z,51.40
2022-10-13T08:09:44.938Z,50.00
2022-10-13T08:10:44.808Z,46.80
2022-10-13T08:11:45.817Z,46.00
2022-10-13T08:12:44.744Z,42.70
2022-10-13T08:13:44.758Z,45.90
2022-10-13T08:14:44.803Z,41.00
2022-10-13T08:15:44.769Z,46.10
2022-10-13T08:16:46.577Z,44.40
2022-10-13T08:17:44.708Z,44.80
2022-10-13T08:18:44.688Z,47.40
2022-10-13T08:19:44.646Z,49.40
2022-10-13T08:20:44.711Z,54.00
2022-10-13T08:22:00.411Z,50.50
2022-10-13T08:22:45.638Z,46.60
2022-10-13T08:23:44.628Z,47.30
2022-10-13T08:24:44.589Z,49.30
2022-10-13T08:25:44.654Z,49.10
2022-10-13T08:26:44.550Z,50.50
2022-10-13T08:27:50.954Z,51.80
2022-10-13T08:29:02.918Z,50.50
2022-10-13T08:29:45.509Z,49.30
2022-10-13T08:30:44.693Z,50.00
2022-10-13T08:31:44.773Z,49.60
2022-10-13T08:32:44.492Z,48.70
2022-10-13T08:33:44.455Z,50.50
2022-10-13T08:34:44.559Z,52.80
2022-10-13T08:35:44.419Z,45.10
2022-10-13T08:36:44.519Z,52.70
2022-10-13T08:37:44.410Z,52.00
2022-10-13T08:38:44.490Z,48.10
2022-10-13T08:39:44.369Z,50.00
2022-10-13T08:40:44.497Z,51.00
2022-10-13T08:41:44.350Z,45.90
2022-10-13T08:42:44.450Z,51.30
2022-10-13T08:44:13.407Z,40.90
2022-10-13T08:45:45.679Z,50.40
2022-10-13T08:46:44.393Z,42.80
2022-10-13T08:47:44.269Z,44.10
2022-10-13T08:48:44.370Z,47.60
2022-10-13T08:49:44.621Z,40.80
2022-10-13T08:50:45.750Z,47.00
2022-10-13T08:51:44.718Z,41.30
2022-10-13T08:52:44.648Z,37.80
2022-10-13T08:53:44.542Z,40.50
2022-10-13T08:54:44.638Z,41.20
2022-10-13T08:55:44.534Z,36.20
2022-10-13T08:56:44.547Z,38.30
2022-10-13T08:57:44.667Z,38.10
2022-10-13T08:58:44.548Z,34.20
2022-10-13T08:59:44.475Z,36.40
2022-10-13T09:00:44.587Z,38.90
2022-10-13T09:01:44.484Z,36.70
2022-10-13T09:02:44.496Z,40.10
2022-10-13T09:03:44.580Z,35.70
2022-10-13T09:04:46.741Z,39.50
2022-10-13T09:05:44.431Z,38.10
2022-10-13T09:06:45.183Z,36.90
2022-10-13T09:07:44.528Z,34.90
2022-10-13T09:08:44.430Z,39.40
2022-10-13T09:09:44.517Z,37.70
2022-10-13T09:10:44.465Z,40.30
2022-10-13T09:11:44.283Z,40.10
2022-10-13T09:12:44.407Z,40.60
2022-10-13T09:13:44.300Z,38.70
2022-10-13T09:14:44.429Z,38.60
2022-10-13T09:15:44.394Z,43.70
2022-10-13T09:16:44.321Z,39.70
2022-10-13T09:17:44.255Z,38.80
2022-10-13T09:18:46.483Z,41.10
2022-10-13T09:19:44.219Z,45.40
2022-10-13T09:20:44.308Z,41.50
2022-10-13T09:21:44.302Z,41.80
2022-10-13T09:22:44.212Z,39.60
2022-10-13T09:23:44.161Z,39.20
2022-10-13T09:24:44.242Z,37.80
2022-10-13T09:25:44.447Z,40.40
2022-10-13T09:26:45.466Z,37.20
2022-10-13T09:27:44.230Z,38.10
2022-10-13T09:29:05.172Z,38.10
2022-10-13T09:29:44.251Z,38.20
2022-10-13T09:30:44.093Z,37.40
2022-10-13T09:31:44.050Z,37.10
2022-10-13T09:32:44.090Z,37.80
2022-10-13T09:33:44.163Z,40.30
2022-10-13T09:34:45.043Z,35.40
2022-10-13T09:35:44.086Z,38.90
2022-10-13T09:36:45.054Z,39.70
2022-10-13T09:37:50.725Z,42.10
2022-10-13T09:38:45.125Z,36.50
2022-10-13T09:39:44.058Z,35.40
2022-10-13T09:40:44.993Z,38.90
2022-10-13T09:41:43.928Z,37.80
2022-10-13T09:43:04.972Z,35.40
2022-10-13T09:43:43.876Z,36.30
2022-10-13T09:44:44.013Z,37.70
2022-10-13T09:45:43.974Z,38.20
2022-10-13T09:46:43.895Z,38.30
2022-10-13T09:47:43.859Z,41.30
2022-10-13T09:48:43.938Z,37.50
2022-10-13T09:49:43.777Z,44.80
2022-10-13T09:50:43.837Z,39.80
2022-10-13T09:51:43.872Z,36.10
2022-10-13T09:52:43.852Z,37.70
2022-10-13T09:53:43.452Z,41.40
2022-10-13T09:54:43.452Z,36.40
2022-10-13T09:55:43.344Z,39.20
2022-10-13T09:56:43.360Z,38.60
2022-10-13T09:57:43.350Z,37.80
2022-10-13T09:59:43.290Z,42.90
2022-10-13T10:00:44.318Z,42.70
2022-10-13T10:01:43.271Z,32.50
2022-10-13T10:02:43.300Z,38.60
2022-10-13T10:03:43.377Z,35.50
2022-10-13T10:04:43.651Z,37.30
2022-10-13T10:05:43.243Z,37.60
2022-10-13T10:06:43.232Z,41.20
2022-10-13T10:07:43.195Z,38.00
2022-10-13T10:09:02.301Z,36.10
2022-10-13T10:09:44.183Z,37.30
2022-10-13T10:10:43.261Z,37.00
2022-10-13T10:11:43.137Z,43.30
2022-10-13T10:12:43.244Z,34.50
2022-10-13T10:13:43.101Z,39.40
2022-10-13T10:14:43.254Z,34.90
2022-10-13T10:15:43.113Z,38.00
2022-10-13T10:16:43.093Z,37.60
2022-10-13T10:17:43.041Z,32.30
2022-10-13T10:18:43.483Z,35.50
2022-10-13T10:19:43.013Z,37.90
2022-10-13T10:20:43.489Z,39.40
2022-10-13T10:21:43.023Z,39.50
2022-10-13T10:22:43.084Z,41.40
2022-10-13T10:23:42.977Z,33.50
2022-10-13T10:24:43.284Z,36.40
2022-10-13T10:25:42.963Z,33.70
2022-10-13T10:26:42.963Z,38.10
2022-10-13T10:27:43.913Z,32.60
2022-10-13T10:28:43.026Z,34.70
2022-10-13T10:29:42.891Z,41.90
2022-10-13T10:31:03.982Z,33.40
2022-10-13T10:31:42.879Z,33.40
2022-10-13T10:32:43.093Z,34.60
2022-10-13T10:33:42.852Z,32.50
2022-10-13T10:34:42.922Z,38.40
2022-10-13T10:35:42.803Z,33.90
2022-10-13T10:37:03.922Z,36.30
2022-10-13T10:37:42.803Z,35.40
2022-10-13T10:38:42.842Z,34.70
2022-10-13T10:39:42.782Z,32.90
2022-10-13T10:40:42.762Z,35.90
2022-10-13T10:41:42.742Z,35.00
2022-10-13T10:42:42.774Z,35.10
2022-10-13T10:43:42.702Z,34.10
2022-10-13T10:44:42.833Z,37.30
2022-10-13T10:45:42.705Z,34.40
2022-10-13T10:46:42.803Z,40.20
2022-10-13T10:47:42.653Z,32.40
2022-10-13T10:48:42.935Z,36.10
2022-10-13T10:49:42.623Z,30.00
2022-10-13T10:50:42.633Z,36.70
2022-10-13T10:51:42.625Z,32.10
2022-10-13T10:52:42.645Z,33.40
2022-10-13T10:53:42.583Z,32.50
2022-10-13T10:54:46.704Z,36.20
2022-10-13T10:55:43.542Z,34.10
2022-10-13T10:56:42.718Z,37.30
2022-10-13T10:57:43.499Z,31.80
2022-10-13T10:58:43.060Z,33.20
2022-10-13T10:59:49.276Z,32.10
2022-10-13T11:00:45.303Z,33.60
2022-10-13T11:01:43.772Z,34.30
2022-10-13T11:02:42.977Z,36.00
2022-10-13T11:03:46.022Z,35.70
2022-10-13T11:04:42.432Z,29.70
2022-10-13T11:05:42.525Z,37.80
2022-10-13T11:06:42.929Z,33.60
2022-10-13T11:07:44.474Z,33.30
2022-10-13T11:08:43.193Z,33.10
2022-10-13T11:09:44.642Z,33.00
2022-10-13T11:10:43.750Z,36.60
2022-10-13T11:11:43.361Z,36.90
2022-10-13T11:12:43.520Z,32.90
2022-10-13T11:13:42.393Z,33.80
2022-10-13T11:14:42.434Z,34.80
2022-10-13T11:15:42.384Z,31.50
2022-10-13T11:16:42.283Z,32.10
2022-10-13T11:17:42.375Z,33.60
2022-10-13T11:18:42.240Z,33.80
2022-10-13T11:19:43.328Z,32.30
2022-10-13T11:20:42.213Z,36.10
2022-10-13T11:21:42.287Z,36.00
2022-10-13T11:22:42.190Z,36.40
2022-10-13T11:23:42.272Z,36.10
2022-10-13T11:24:42.153Z,40.30
2022-10-13T11:25:42.303Z,35.50
2022-10-13T11:26:42.132Z,33.20
2022-10-13T11:27:42.283Z,36.50
2022-10-13T11:28:42.115Z,38.70
2022-10-13T11:29:42.304Z,32.70
2022-10-13T11:30:42.065Z,40.00
2022-10-13T11:31:42.213Z,33.30
2022-10-13T11:32:42.044Z,33.30
2022-10-13T11:33:42.194Z,32.90
2022-10-13T11:34:42.023Z,36.30
2022-10-13T11:35:42.360Z,29.40
2022-10-13T11:36:42.004Z,38.50
2022-10-13T11:37:42.133Z,36.00
2022-10-13T11:38:41.965Z,33.00
2022-10-13T11:39:42.843Z,38.50
2022-10-13T11:40:41.946Z,38.20
2022-10-13T11:41:41.986Z,34.80
2022-10-13T11:42:41.937Z,36.80
2022-10-13T11:43:42.025Z,35.00
2022-10-13T11:44:41.915Z,38.40
2022-10-13T11:45:43.035Z,38.50
2022-10-13T11:46:41.875Z,32.70
2022-10-13T11:47:41.997Z,30.90
2022-10-13T11:48:41.839Z,32.80
2022-10-13T11:49:42.029Z,37.10
2022-10-13T11:50:41.812Z,36.20
2022-10-13T11:51:45.087Z,33.00
2022-10-13T11:52:41.796Z,34.60
2022-10-13T11:53:41.896Z,35.90
2022-10-13T11:54:41.759Z,32.60
2022-10-13T11:55:41.842Z,33.70
2022-10-13T11:56:44.893Z,32.90
2022-10-13T11:57:42.747Z,34.40
2022-10-13T11:58:42.858Z,36.90
2022-10-13T11:59:41.714Z,34.60
2022-10-13T12:00:41.776Z,31.30
2022-10-13T12:01:41.659Z,35.20
2022-10-13T12:02:43.950Z,34.70
2022-10-13T12:03:41.666Z,35.40
2022-10-13T12:04:46.528Z,32.20
2022-10-13T12:05:42.636Z,37.80
2022-10-13T12:06:41.685Z,34.90
2022-10-13T12:07:41.590Z,34.00
2022-10-13T12:08:41.729Z,36.30
2022-10-13T12:09:41.587Z,34.90
2022-10-13T12:10:41.648Z,34.70
2022-10-13T12:11:41.546Z,38.50
2022-10-13T12:12:41.716Z,34.60
2022-10-13T12:13:41.518Z,30.00
2022-10-13T12:14:42.547Z,34.10
2022-10-13T12:15:41.511Z,33.10
2022-10-13T12:16:41.561Z,36.90
2022-10-13T12:17:41.460Z,31.90
2022-10-13T12:18:42.627Z,32.50
2022-10-13T12:19:41.438Z,31.90
2022-10-13T12:20:41.528Z,32.10
2022-10-13T12:21:41.426Z,35.40
2022-10-13T12:22:41.466Z,36.60
2022-10-13T12:23:41.378Z,34.30
2022-10-13T12:24:41.497Z,32.30
2022-10-13T12:25:41.348Z,37.20
2022-10-13T12:26:41.437Z,30.10
2022-10-13T12:27:41.352Z,31.00
2022-10-13T12:28:41.492Z,31.40
2022-10-13T12:29:41.308Z,30.60
2022-10-13T12:30:41.510Z,34.20
2022-10-13T12:31:41.378Z,33.30
2022-10-13T12:32:42.368Z,36.10
2022-10-13T12:33:41.288Z,34.90
2022-10-13T12:34:42.298Z,32.70
2022-10-13T12:35:41.219Z,32.10
2022-10-13T12:36:41.396Z,34.90
2022-10-13T12:37:41.200Z,32.10
2022-10-13T12:38:42.369Z,36.20
2022-10-13T12:39:41.208Z,32.80
2022-10-13T12:40:41.279Z,31.50
2022-10-13T12:41:41.148Z,31.80
2022-10-13T12:42:41.219Z,34.00
2022-10-13T12:43:41.119Z,32.00
2022-10-13T12:44:41.249Z,32.30
2022-10-13T12:45:41.112Z,31.80
2022-10-13T12:46:41.198Z,41.80
2022-10-13T12:47:41.061Z,29.10
2022-10-13T12:48:42.251Z,32.50
2022-10-13T12:49:41.039Z,34.60
2022-10-13T12:50:43.160Z,34.60
2022-10-13T12:51:41.028Z,33.10
2022-10-13T12:52:41.097Z,33.20
2022-10-13T12:53:40.979Z,32.30
2022-10-13T12:54:41.131Z,32.60